VIJP/JAI METAR and TAF weather

Enter ICAO airport designator
Station Type Date Time Source
VIJP METAR 2019/05/23 18:30 UTC NOAA

VIJP 231830Z 07005KT 2000 HZ SCT100 31/17 Q1005 NOSIG


Station Type Date Time Source
VIJP Decoded METAR 2019/05/23 18:30 UTC NOAA

Jaipur / Sanganer, India (VIJP) 26-49N 075-48E 390M
May 23, 2019 - 02:30 PM EDT / 2019.05.23 1830 UTC
Wind: from the ENE (070 degrees) at 6 MPH (5 KT):0
Visibility: 1 mile(s):0
Sky conditions: partly cloudy
Weather: haze
Temperature: 87 F (31 C)
Dew Point: 62 F (17 C)
Relative Humidity: 43%
Pressure (altimeter): 29.68 in. Hg (1005 hPa)
ob: VIJP 231830Z 07005KT 2000 HZ SCT100 31/17 Q1005 NOSIG
cycle: 18

Station Type Date Time Source
VIJP TAF 2019/05/23 18:00 UTC NOAA

TAF VIJP 231700Z 2318/2324 05005KT 2000 HZ SCT030 SCT100
TEMPO 2318/2321 340100G25KT 1000 DS -TSRA FEW035CB BKN090
BECMG 2400/2402 05005KT 2000 HZ FEW035 SCT100
BECMG 2404/2406 32006KT 4000 HZ SCT035 SCT100
BECMG 2413/2414 VRB03KT 2500 HZ SCT030 SCT100

Example: see airport list